Time;durP1;ratioP1;P1;durP2;ratioP2;P2;SDS_P1;SDS_P2;PMS_P1;PMS_P2;Temp;Humidity;BMP_temperature;BMP_pressure;BME280_temperature;BME280_humidity;BME280_pressure;Samples;Min_cycle;Max_cycle;Signal;HPM_P1;HPM_P2
2021/12/22 00:00:13;;;;;;;28.83;11.20;;;;;-1.60;102014.00;;;;4996246;28;20226;-73
2021/12/22 00:02:59;;;;;;;53.70;13.97;;;;;-1.70;102018.00;;;;4998660;28;20240;-74
2021/12/22 00:05:50;;;;;;;31.50;12.93;;;;;-1.80;102015.00;;;;4986564;28;20234;-74
2021/12/22 00:08:37;;;;;;;33.47;13.30;;;;;-1.60;102020.00;;;;4989548;28;20242;-74
2021/12/22 00:11:23;;;;;;;33.53;13.50;;;;;-1.50;102011.00;;;;4972569;28;20238;-73
2021/12/22 00:14:09;;;;;;;36.63;12.23;;;;;-1.80;102026.00;;;;4978138;28;20226;-74
2021/12/22 00:16:57;;;;;;;43.50;13.37;;;;;-1.80;102030.00;;;;4988656;28;20236;-74
2021/12/22 00:19:43;;;;;;;42.30;13.60;;;;;-1.80;102017.00;;;;4997996;28;20229;-75
2021/12/22 00:22:30;;;;;;;96.13;14.57;;;;;-1.70;102025.00;;;;4993042;28;20242;-75
2021/12/22 00:25:16;;;;;;;41.10;13.77;;;;;-1.70;102020.00;;;;4994269;28;20234;-74
2021/12/22 00:28:03;;;;;;;77.30;15.10;;;;;-1.80;102018.00;;;;5008939;28;20697;-74
2021/12/22 00:30:50;;;;;;;49.63;13.83;;;;;-1.90;102029.00;;;;5002456;28;20226;-75
2021/12/22 00:33:45;;;;;;;34.40;14.47;;;;;-1.80;102022.00;;;;5010916;28;20236;-73
2021/12/22 00:36:31;;;;;;;33.77;13.50;;;;;-1.70;102014.00;;;;5005030;28;20236;-75
2021/12/22 00:39:17;;;;;;;51.93;14.07;;;;;-1.80;102034.00;;;;4982275;28;20775;-73
2021/12/22 00:42:04;;;;;;;30.43;13.23;;;;;-1.70;102031.00;;;;4995735;28;20237;-74
2021/12/22 00:44:53;;;;;;;37.03;13.17;;;;;-1.80;102022.00;;;;4989263;28;20593;-72
2021/12/22 00:47:39;;;;;;;31.93;12.70;;;;;-1.80;102017.00;;;;4995530;28;20233;-74
2021/12/22 00:50:27;;;;;;;33.60;13.50;;;;;-1.80;102024.00;;;;4987886;28;20226;-74
2021/12/22 00:53:14;;;;;;;52.70;12.03;;;;;-1.80;102019.00;;;;4994337;28;20817;-74
2021/12/22 00:56:03;;;;;;;34.97;13.17;;;;;-1.80;102022.00;;;;5008249;28;20297;-74
2021/12/22 00:58:49;;;;;;;29.43;11.03;;;;;-1.90;102021.00;;;;4997727;28;20841;-75
2021/12/22 01:01:36;;;;;;;47.50;11.70;;;;;-1.80;102018.00;;;;5012652;28;20229;-75
2021/12/22 01:04:23;;;;;;;28.13;12.10;;;;;-1.80;102017.00;;;;5003831;28;20951;-74
2021/12/22 01:07:10;;;;;;;29.40;11.20;;;;;-1.90;102017.00;;;;4995102;28;20700;-74
2021/12/22 01:09:57;;;;;;;25.40;11.00;;;;;-1.90;102027.00;;;;4985580;28;20230;-75
2021/12/22 01:12:44;;;;;;;28.07;11.70;;;;;-1.80;102032.00;;;;5002455;28;20242;-74
2021/12/22 01:15:31;;;;;;;27.97;12.70;;;;;-1.70;102030.00;;;;5021513;28;20321;-73
2021/12/22 01:18:28;;;;;;;31.87;11.90;;;;;-1.90;102042.00;;;;4988169;28;20705;-74
2021/12/22 01:21:20;;;;;;;35.67;12.43;;;;;-1.90;102029.00;;;;4990949;28;20234;-74
2021/12/22 01:24:15;;;;;;;32.90;12.03;;;;;-1.80;102034.00;;;;4973716;28;20299;-72
2021/12/22 01:27:07;;;;;;;56.60;12.23;;;;;-1.80;102040.00;;;;4998310;28;20234;-74
2021/12/22 01:29:54;;;;;;;26.07;10.37;;;;;-2.00;102016.00;;;;5008448;28;20623;-74
2021/12/22 01:32:41;;;;;;;44.10;11.57;;;;;-2.00;102032.00;;;;5013972;28;20234;-73
2021/12/22 01:35:32;;;;;;;24.60;10.53;;;;;-2.00;102037.00;;;;4980675;28;20733;-72
2021/12/22 01:38:18;;;;;;;33.00;11.97;;;;;-2.10;102033.00;;;;4991121;28;20250;-75
2021/12/22 01:41:06;;;;;;;31.63;11.53;;;;;-1.80;102043.00;;;;4995354;28;20229;-73
2021/12/22 01:43:54;;;;;;;34.30;11.17;;;;;-1.90;102039.00;;;;4997454;28;20321;-73
2021/12/22 01:49:50;;;;;;;42.07;12.23;;;;;-2.00;102028.00;;;;4995616;28;20229;-75
2021/12/22 01:52:37;;;;;;;21.87;10.43;;;;;-2.10;102023.00;;;;4983584;28;20359;-72
2021/12/22 01:55:33;;;;;;;33.23;10.63;;;;;-2.00;102030.00;;;;4982313;28;20600;-74
2021/12/22 01:58:32;;;;;;;25.57;10.03;;;;;-2.00;102029.00;;;;4979568;28;20254;-74
2021/12/22 02:01:19;;;;;;;24.63;9.47;;;;;-2.00;102029.00;;;;4989272;28;20233;-73
2021/12/22 02:04:11;;;;;;;32.40;11.60;;;;;-2.00;102031.00;;;;4986397;28;20708;-74
2021/12/22 02:06:58;;;;;;;24.40;10.80;;;;;-1.90;102036.00;;;;4982035;28;20714;-74
2021/12/22 02:12:54;;;;;;;25.53;11.53;;;;;-2.00;102035.00;;;;4979056;28;20242;-75
2021/12/22 02:15:42;;;;;;;24.60;10.73;;;;;-2.00;102015.00;;;;4993925;28;20795;-75
2021/12/22 02:18:31;;;;;;;35.17;11.00;;;;;-1.90;102024.00;;;;5007864;28;20289;-74
2021/12/22 02:21:20;;;;;;;31.53;11.00;;;;;-2.00;102011.00;;;;4987488;28;20227;-74
2021/12/22 02:24:07;;;;;;;34.93;12.00;;;;;-2.00;102031.00;;;;4982455;28;20225;-74
2021/12/22 02:27:01;;;;;;;39.50;11.30;;;;;-2.00;102026.00;;;;4986719;28;20234;-74
2021/12/22 02:29:49;;;;;;;25.90;11.47;;;;;-2.00;102025.00;;;;5005229;28;20233;-74
2021/12/22 02:35:44;;;;;;;25.30;10.30;;;;;-2.20;102028.00;;;;5012182;28;20264;-75
2021/12/22 02:38:32;;;;;;;24.67;10.90;;;;;-2.20;102023.00;;;;5021621;28;20705;-74
2021/12/22 02:41:19;;;;;;;32.57;11.83;;;;;-2.10;102017.00;;;;5015055;28;20369;-75
2021/12/22 02:44:10;;;;;;;23.57;10.97;;;;;-2.10;102014.00;;;;5020393;28;20232;-73
2021/12/22 02:46:57;;;;;;;39.37;12.17;;;;;-2.10;102014.00;;;;5006620;28;20222;-73
2021/12/22 02:49:43;;;;;;;24.27;10.90;;;;;-1.90;102009.00;;;;4994656;28;20218;-74
2021/12/22 02:52:37;;;;;;;39.27;11.53;;;;;-2.10;102018.00;;;;5025370;28;20283;-75
2021/12/22 02:55:30;;;;;;;34.07;11.00;;;;;-2.00;102011.00;;;;5021017;28;20273;-74
2021/12/22 02:58:30;;;;;;;26.60;9.47;;;;;-2.00;102011.00;;;;5016512;28;20237;-74
2021/12/22 03:01:29;;;;;;;25.03;10.30;;;;;-2.00;102006.00;;;;5014840;28;20272;-74
2021/12/22 03:04:22;;;;;;;34.63;11.07;;;;;-2.10;102001.00;;;;5009486;28;20254;-73
2021/12/22 03:07:13;;;;;;;28.87;12.60;;;;;-2.10;102015.00;;;;4991438;28;20277;-75
2021/12/22 03:10:02;;;;;;;23.00;9.83;;;;;-2.10;102022.00;;;;5012703;28;20221;-74
2021/12/22 03:12:52;;;;;;;33.73;12.67;;;;;-2.20;102020.00;;;;5018484;28;20226;-73
2021/12/22 03:15:39;;;;;;;31.80;12.97;;;;;-2.30;102020.00;;;;5016874;28;20226;-75
2021/12/22 03:18:25;;;;;;;39.57;11.47;;;;;-2.10;102023.00;;;;5017552;28;20596;-77
2021/12/22 03:21:19;;;;;;;35.93;12.30;;;;;-2.30;102010.00;;;;5007687;28;20293;-74
2021/12/22 03:24:06;;;;;;;52.43;13.43;;;;;-2.30;102033.00;;;;5006067;28;20225;-74
2021/12/22 03:26:53;;;;;;;36.40;12.23;;;;;-2.30;102039.00;;;;5013566;28;20293;-75
2021/12/22 03:29:41;;;;;;;29.17;11.90;;;;;-2.30;102036.00;;;;5014248;28;20284;-73
2021/12/22 03:32:27;;;;;;;38.90;12.70;;;;;-2.30;102026.00;;;;5010896;28;20246;-75
2021/12/22 03:35:17;;;;;;;40.97;12.50;;;;;-2.20;102027.00;;;;5026490;28;20228;-73
2021/12/22 03:38:04;;;;;;;29.13;12.77;;;;;-2.30;102015.00;;;;4997868;28;20237;-73
2021/12/22 03:40:51;;;;;;;25.57;10.27;;;;;-2.30;102021.00;;;;5006640;28;20271;-75
2021/12/22 03:43:37;;;;;;;26.77;12.37;;;;;-2.40;102006.00;;;;5016201;28;20712;-74
2021/12/22 03:46:25;;;;;;;45.83;12.37;;;;;-2.50;102018.00;;;;4989621;28;20274;-74
2021/12/22 03:49:13;;;;;;;37.80;12.47;;;;;-2.50;102010.00;;;;5015115;28;20423;-74
2021/12/22 03:51:59;;;;;;;35.60;11.23;;;;;-2.50;102002.00;;;;5007725;28;20242;-75
2021/12/22 03:54:46;;;;;;;42.50;12.97;;;;;-2.20;102015.00;;;;4984947;28;20223;-73
2021/12/22 03:57:33;;;;;;;32.70;11.63;;;;;-2.40;102023.00;;;;4989707;28;20366;-74
2021/12/22 04:00:19;;;;;;;33.90;12.27;;;;;-2.40;102016.00;;;;4980776;28;20230;-74
2021/12/22 04:03:10;;;;;;;21.00;9.80;;;;;-2.50;102023.00;;;;4987102;28;20223;-73
2021/12/22 04:05:57;;;;;;;29.80;11.87;;;;;-2.50;102022.00;;;;4978032;28;20306;-75
2021/12/22 04:08:43;;;;;;;27.67;13.57;;;;;-2.50;101965.00;;;;4983425;28;20238;-73
2021/12/22 04:11:29;;;;;;;33.43;12.40;;;;;-2.50;102010.00;;;;4996017;28;20312;-73
2021/12/22 04:14:16;;;;;;;30.30;12.50;;;;;-2.30;102012.00;;;;4987403;28;20234;-74
2021/12/22 04:17:02;;;;;;;33.33;12.20;;;;;-2.40;102019.00;;;;5013231;28;20369;-74
2021/12/22 04:19:50;;;;;;;41.37;14.30;;;;;-2.50;102019.00;;;;5010101;28;20241;-74
2021/12/22 04:22:37;;;;;;;36.13;14.17;;;;;-2.20;102022.00;;;;5017956;28;20711;-74
2021/12/22 04:25:24;;;;;;;31.87;12.27;;;;;-2.30;102003.00;;;;5002568;28;20234;-73
2021/12/22 04:28:10;;;;;;;33.30;12.63;;;;;-2.40;102017.00;;;;4993066;28;20234;-75
2021/12/22 04:30:57;;;;;;;29.73;11.80;;;;;-2.30;102011.00;;;;4991411;28;20289;-73
2021/12/22 04:33:43;;;;;;;30.90;11.20;;;;;-2.30;101961.00;;;;5009708;28;20703;-73
2021/12/22 04:36:31;;;;;;;38.70;12.57;;;;;-2.50;102020.00;;;;5012032;28;20234;-71
2021/12/22 04:39:17;;;;;;;38.03;13.20;;;;;-2.40;101967.00;;;;5016829;28;20244;-73
2021/12/22 04:42:04;;;;;;;35.93;12.50;;;;;-2.40;102028.00;;;;5004819;28;20257;-74
2021/12/22 04:44:53;;;;;;;45.80;12.67;;;;;-2.60;102020.00;;;;4986585;28;20230;-74
2021/12/22 04:47:40;;;;;;;61.80;13.20;;;;;-2.50;102022.00;;;;5019078;28;20237;-74
2021/12/22 04:50:27;;;;;;;32.03;12.43;;;;;-2.60;101989.00;;;;5008123;28;20230;-76
2021/12/22 04:53:21;;;;;;;35.40;11.77;;;;;-2.60;102016.00;;;;4996226;28;20234;-74
2021/12/22 04:56:08;;;;;;;68.20;13.60;;;;;-2.60;102015.00;;;;5000262;28;20230;-74
2021/12/22 04:58:54;;;;;;;68.37;14.50;;;;;-2.50;102023.00;;;;4981736;28;20730;-73
2021/12/22 05:01:40;;;;;;;80.00;15.27;;;;;-2.50;102033.00;;;;4988922;28;20238;-74
2021/12/22 05:04:27;;;;;;;48.50;14.13;;;;;-2.60;102025.00;;;;4988386;28;20822;-74
2021/12/22 05:07:16;;;;;;;47.73;13.00;;;;;-2.50;102018.00;;;;4983722;28;20237;-75
2021/12/22 05:10:04;;;;;;;43.53;14.57;;;;;-2.50;102018.00;;;;5002688;28;20234;-74
2021/12/22 05:12:52;;;;;;;50.77;14.63;;;;;-2.40;102007.00;;;;5000466;28;20373;-75
2021/12/22 05:15:39;;;;;;;37.87;14.93;;;;;-2.60;102006.00;;;;5016615;28;20797;-74
2021/12/22 05:18:47;;;;;;;39.97;14.93;;;;;-2.60;102001.00;;;;4990574;28;20753;-74
2021/12/22 05:21:31;;;;;;;36.97;12.10;;;;;-2.60;101998.00;;;;5005800;28;20242;-74
2021/12/22 05:24:18;;;;;;;37.10;13.20;;;;;-2.60;101975.00;;;;5001585;28;20388;-75
2021/12/22 05:27:07;;;;;;;28.03;11.67;;;;;-2.60;102005.00;;;;5002309;28;20227;-74
2021/12/22 05:29:53;;;;;;;45.90;12.50;;;;;-2.60;102008.00;;;;4999667;28;20257;-74
2021/12/22 05:32:40;;;;;;;32.07;11.90;;;;;-2.70;102008.00;;;;5005865;28;20665;-74
2021/12/22 05:35:27;;;;;;;31.13;12.73;;;;;-2.60;101994.00;;;;5005304;28;20241;-74
2021/12/22 05:38:13;;;;;;;34.03;10.83;;;;;-2.60;101996.00;;;;5009986;28;20240;-75
2021/12/22 05:41:00;;;;;;;28.23;10.50;;;;;-2.50;102004.00;;;;4979848;28;20235;-72
2021/12/22 05:43:48;;;;;;;26.47;11.47;;;;;-2.50;101957.00;;;;4985657;28;20230;-72
2021/12/22 05:46:34;;;;;;;33.20;11.87;;;;;-2.60;101989.00;;;;5011482;28;20237;-73
2021/12/22 05:49:21;;;;;;;33.53;11.97;;;;;-2.60;101976.00;;;;4987809;28;20286;-73
2021/12/22 05:52:07;;;;;;;24.33;11.63;;;;;-2.60;101982.00;;;;4995300;28;20242;-73
2021/12/22 05:54:53;;;;;;;53.30;12.77;;;;;-2.70;101973.00;;;;4998820;28;20246;-71
2021/12/22 05:57:40;;;;;;;34.90;13.57;;;;;-2.80;101979.00;;;;5012389;28;20238;-73
2021/12/22 06:00:27;;;;;;;31.00;13.73;;;;;-2.80;101971.00;;;;4983687;28;20235;-72
2021/12/22 06:03:14;;;;;;;28.43;12.53;;;;;-2.90;101986.00;;;;5009222;28;20250;-72
2021/12/22 06:06:00;;;;;;;34.10;13.57;;;;;-2.90;101972.00;;;;4993537;28;20233;-73
2021/12/22 06:08:47;;;;;;;39.77;16.23;;;;;-2.90;101966.00;;;;4987325;28;20889;-70
2021/12/22 06:11:33;;;;;;;39.20;16.17;;;;;-2.80;101960.00;;;;5021042;28;20240;-74
2021/12/22 06:14:20;;;;;;;40.07;16.07;;;;;-2.80;101966.00;;;;5013469;28;20280;-73
2021/12/22 06:17:08;;;;;;;37.37;14.63;;;;;-2.80;101959.00;;;;5006763;28;20312;-73
2021/12/22 06:19:55;;;;;;;37.10;15.23;;;;;-2.90;101958.00;;;;5010845;28;20270;-73
2021/12/22 06:22:41;;;;;;;45.73;15.60;;;;;-2.70;101953.00;;;;5018439;28;20721;-73
2021/12/22 06:25:27;;;;;;;37.83;15.43;;;;;-2.90;101961.00;;;;5012207;28;20254;-73
2021/12/22 06:28:14;;;;;;;49.20;15.57;;;;;-2.80;101968.00;;;;5014090;28;20234;-72
2021/12/22 06:31:00;;;;;;;41.43;14.43;;;;;-3.00;101968.00;;;;5015055;28;20271;-73
2021/12/22 06:33:48;;;;;;;39.77;14.73;;;;;-3.00;101951.00;;;;5002813;28;20229;-73
2021/12/22 06:36:34;;;;;;;35.47;14.17;;;;;-3.00;101955.00;;;;5002807;28;20306;-74
2021/12/22 06:39:21;;;;;;;42.57;14.50;;;;;-2.90;101958.00;;;;5008821;28;20242;-73
2021/12/22 06:42:08;;;;;;;34.77;14.60;;;;;-2.90;101942.00;;;;4991074;28;20612;-75
2021/12/22 06:44:55;;;;;;;39.73;15.33;;;;;-2.90;101955.00;;;;4983270;28;20227;-73
2021/12/22 06:47:42;;;;;;;35.57;13.73;;;;;-2.70;101953.00;;;;5016344;28;20311;-73
2021/12/22 06:50:30;;;;;;;45.50;16.63;;;;;-2.80;101949.00;;;;5012964;28;20241;-73
2021/12/22 06:53:16;;;;;;;36.97;14.70;;;;;-2.90;101944.00;;;;5005271;28;20234;-74
2021/12/22 06:56:02;;;;;;;44.30;15.40;;;;;-2.90;101953.00;;;;4992764;28;20289;-73
2021/12/22 06:58:49;;;;;;;36.33;13.50;;;;;-2.90;101943.00;;;;4987245;28;20841;-72
2021/12/22 07:01:36;;;;;;;49.10;14.07;;;;;-2.90;101947.00;;;;5020116;28;20261;-74
2021/12/22 07:04:23;;;;;;;38.03;14.20;;;;;-2.90;101937.00;;;;5015450;28;20233;-73
2021/12/22 07:07:11;;;;;;;33.50;13.57;;;;;-2.90;101942.00;;;;5012496;28;20721;-73
2021/12/22 07:10:02;;;;;;;30.13;12.00;;;;;-2.90;101955.00;;;;4986110;28;20239;-74
2021/12/22 07:12:49;;;;;;;29.17;11.83;;;;;-3.10;101935.00;;;;4986289;28;20710;-68
2021/12/22 07:15:35;;;;;;;35.37;13.60;;;;;-3.10;101939.00;;;;5011372;28;20237;-73
2021/12/22 07:18:24;;;;;;;23.90;11.00;;;;;-3.00;101946.00;;;;4988608;28;20254;-75
2021/12/22 07:21:11;;;;;;;24.83;12.47;;;;;-3.10;101936.00;;;;5001301;28;20716;-72
2021/12/22 07:23:58;;;;;;;28.47;11.27;;;;;-3.10;101941.00;;;;4986084;28;20709;-73
2021/12/22 07:26:45;;;;;;;27.47;12.90;;;;;-3.00;101946.00;;;;5015389;28;20628;-72
2021/12/22 07:29:31;;;;;;;31.23;13.00;;;;;-3.00;101958.00;;;;5002792;28;20234;-75
2021/12/22 07:32:18;;;;;;;27.13;11.37;;;;;-2.90;101962.00;;;;5013851;28;20233;-75
2021/12/22 07:35:08;;;;;;;25.63;12.13;;;;;-3.00;101964.00;;;;5011360;28;20229;-73
2021/12/22 07:38:01;;;;;;;25.10;11.50;;;;;-3.00;101966.00;;;;4985228;28;20242;-73
2021/12/22 07:40:50;;;;;;;27.27;13.13;;;;;-3.00;101970.00;;;;5004580;28;20311;-72
2021/12/22 07:43:37;;;;;;;26.93;11.30;;;;;-3.10;101974.00;;;;5022177;28;20349;-72
2021/12/22 07:46:24;;;;;;;27.97;12.37;;;;;-3.00;101968.00;;;;4987052;28;20361;-73
2021/12/22 07:49:10;;;;;;;31.07;12.90;;;;;-3.00;101969.00;;;;5002789;28;20227;-75
2021/12/22 07:51:56;;;;;;;32.87;12.77;;;;;-2.90;101980.00;;;;4979003;28;20243;-73
2021/12/22 07:54:43;;;;;;;29.27;12.80;;;;;-2.90;101976.00;;;;4991401;28;20663;-74
2021/12/22 07:57:30;;;;;;;30.23;13.67;;;;;-2.90;101989.00;;;;5008398;28;20720;-72
2021/12/22 08:00:17;;;;;;;29.17;12.93;;;;;-3.00;101965.00;;;;4987709;28;20362;-73
2021/12/22 08:03:03;;;;;;;25.40;12.50;;;;;-3.10;101964.00;;;;5009385;28;20237;-72
2021/12/22 08:06:10;;;;;;;24.47;10.90;;;;;-3.00;101977.00;;;;4992903;28;20370;-73
2021/12/22 08:08:57;;;;;;;32.73;13.83;;;;;-3.00;101966.00;;;;4984525;28;20234;-73
2021/12/22 08:11:43;;;;;;;29.73;13.57;;;;;-2.80;101969.00;;;;4994497;28;20289;-74
2021/12/22 08:14:31;;;;;;;27.17;12.20;;;;;-2.80;101971.00;;;;5020142;28;20233;-73
2021/12/22 08:17:17;;;;;;;25.37;10.23;;;;;-2.90;101957.00;;;;4997274;28;20511;-73
2021/12/22 08:20:05;;;;;;;26.70;11.57;;;;;-3.10;101959.00;;;;4985017;28;20238;-73
2021/12/22 08:22:57;;;;;;;22.93;11.00;;;;;-2.90;101967.00;;;;5004326;28;20426;-72
2021/12/22 08:25:43;;;;;;;24.33;11.77;;;;;-3.00;101955.00;;;;5007099;28;20226;-73
2021/12/22 08:28:29;;;;;;;27.83;12.17;;;;;-2.90;101965.00;;;;5016884;28;20808;-74
2021/12/22 08:31:17;;;;;;;27.83;10.77;;;;;-2.90;101961.00;;;;5008484;28;20602;-73
2021/12/22 08:34:05;;;;;;;28.53;11.43;;;;;-2.90;101950.00;;;;5013481;28;20304;-74
2021/12/22 08:39:57;;;;;;;24.17;10.70;;;;;-2.70;101954.00;;;;4988271;28;20585;-74
2021/12/22 08:42:45;;;;;;;25.63;10.83;;;;;-2.80;101956.00;;;;5014809;28;20311;-74
2021/12/22 08:45:31;;;;;;;22.00;10.50;;;;;-2.80;101953.00;;;;5007524;28;20225;-73
2021/12/22 08:48:19;;;;;;;21.87;9.80;;;;;-2.80;101952.00;;;;5015082;28;20228;-73
2021/12/22 08:51:05;;;;;;;21.60;10.27;;;;;-2.80;101953.00;;;;5005204;28;20245;-73
2021/12/22 08:53:52;;;;;;;24.07;10.27;;;;;-2.60;101954.00;;;;4998934;28;20248;-73
2021/12/22 08:56:39;;;;;;;22.17;9.50;;;;;-2.50;101961.00;;;;5015676;28;20230;-73
2021/12/22 08:59:25;;;;;;;22.07;10.20;;;;;-2.50;101947.00;;;;4990628;28;20587;-74
2021/12/22 09:02:12;;;;;;;22.07;10.10;;;;;-2.50;101953.00;;;;5013873;28;20300;-72
2021/12/22 09:05:00;;;;;;;18.70;9.03;;;;;-2.60;101947.00;;;;4989297;28;20226;-73
2021/12/22 09:07:46;;;;;;;20.17;9.30;;;;;-2.50;101945.00;;;;4986137;28;20223;-73
2021/12/22 09:10:33;;;;;;;28.60;9.87;;;;;-2.50;101943.00;;;;5009390;28;20599;-74
2021/12/22 09:13:20;;;;;;;22.63;10.30;;;;;-2.50;101939.00;;;;5007170;28;20230;-74
2021/12/22 09:16:07;;;;;;;17.10;8.70;;;;;-2.40;101936.00;;;;5012460;28;20288;-74
2021/12/22 09:18:55;;;;;;;16.73;9.13;;;;;-2.20;101928.00;;;;5009081;28;20220;-74
2021/12/22 09:21:43;;;;;;;20.93;9.70;;;;;-2.30;101937.00;;;;5013588;28;20602;-74
2021/12/22 09:24:30;;;;;;;20.80;10.33;;;;;-2.20;101941.00;;;;5006487;28;20235;-74
2021/12/22 09:27:16;;;;;;;17.40;10.27;;;;;-2.20;101933.00;;;;4992799;28;20712;-73
2021/12/22 09:30:05;;;;;;;17.00;8.60;;;;;-2.30;101927.00;;;;5003671;28;20238;-73
2021/12/22 09:32:52;;;;;;;16.23;9.00;;;;;-2.20;101931.00;;;;4983811;28;20242;-73
2021/12/22 09:35:39;;;;;;;22.57;10.63;;;;;-2.00;101924.00;;;;5004046;28;20760;-74
2021/12/22 09:38:26;;;;;;;19.57;10.53;;;;;-2.00;101933.00;;;;5003969;28;20273;-75
2021/12/22 09:41:17;;;;;;;16.00;8.90;;;;;-2.20;101935.00;;;;5016530;28;20348;-74
2021/12/22 09:44:05;;;;;;;16.47;8.30;;;;;-2.20;101930.00;;;;5008624;28;20301;-74
2021/12/22 09:46:53;;;;;;;20.43;10.07;;;;;-2.10;101937.00;;;;5012027;28;20233;-74
2021/12/22 09:50:06;;;;;;;20.63;9.50;;;;;-2.10;101941.00;;;;5004171;28;20733;-74
2021/12/22 09:52:52;;;;;;;18.90;9.10;;;;;-1.90;101897.00;;;;4986033;28;20234;-75
2021/12/22 09:55:40;;;;;;;16.10;9.27;;;;;-1.90;101930.00;;;;5000673;28;20235;-75
2021/12/22 09:58:27;;;;;;;18.70;9.50;;;;;-1.90;101932.00;;;;5018374;28;20312;-73
2021/12/22 10:01:14;;;;;;;17.67;9.87;;;;;-1.70;101936.00;;;;5004827;28;20606;-74
2021/12/22 10:04:02;;;;;;;17.30;8.47;;;;;-1.70;101927.00;;;;5014973;28;20237;-74
2021/12/22 10:06:48;;;;;;;19.63;9.57;;;;;-1.50;101922.00;;;;5018826;28;20229;-73
2021/12/22 10:09:43;;;;;;;16.63;8.93;;;;;-1.20;101929.00;;;;5010150;28;20733;-75
2021/12/22 10:12:30;;;;;;;17.00;9.73;;;;;-1.40;101920.00;;;;5002943;28;20234;-72
2021/12/22 10:15:16;;;;;;;16.80;9.03;;;;;-1.20;101890.00;;;;5009285;28;20237;-74
2021/12/22 10:18:10;;;;;;;19.03;9.60;;;;;-1.20;101923.00;;;;5004415;28;20712;-72
2021/12/22 10:21:10;;;;;;;23.07;11.03;;;;;-1.10;101925.00;;;;5007901;28;20250;-72
2021/12/22 10:23:56;;;;;;;29.70;14.07;;;;;-1.20;101916.00;;;;4989766;28;20357;-72
2021/12/22 10:26:42;;;;;;;28.57;11.87;;;;;-1.00;101918.00;;;;5020346;28;20230;-72
2021/12/22 10:29:32;;;;;;;19.50;9.87;;;;;-1.00;101938.00;;;;4993661;28;20234;-72
2021/12/22 10:32:18;;;;;;;16.63;9.03;;;;;-1.00;101927.00;;;;4988545;28;20230;-73
2021/12/22 10:35:06;;;;;;;23.93;10.00;;;;;-0.80;101913.00;;;;4989031;28;20731;-72
2021/12/22 10:38:00;;;;;;;16.10;9.70;;;;;-0.80;101913.00;;;;5011455;28;20228;-72
2021/12/22 10:40:48;;;;;;;18.37;10.13;;;;;-0.70;101916.00;;;;4988780;28;20250;-71
2021/12/22 10:43:40;;;;;;;17.43;9.00;;;;;-0.60;101911.00;;;;5021708;28;20719;-72
2021/12/22 10:46:31;;;;;;;16.17;8.93;;;;;-0.50;101896.00;;;;5011510;28;20253;-74
2021/12/22 10:49:21;;;;;;;21.87;10.63;;;;;-0.50;101886.00;;;;4997359;28;20367;-75
2021/12/22 10:52:07;;;;;;;21.07;11.17;;;;;-0.60;101884.00;;;;4991320;28;20230;-75
2021/12/22 10:55:08;;;;;;;20.17;10.33;;;;;-0.50;101874.00;;;;4981064;28;20278;-73
2021/12/22 10:57:59;;;;;;;22.80;10.97;;;;;-0.40;101890.00;;;;4988601;28;20225;-72
2021/12/22 11:00:46;;;;;;;19.67;10.83;;;;;-0.40;101874.00;;;;4985243;28;20297;-73
2021/12/22 11:03:41;;;;;;;18.40;10.20;;;;;-0.40;101884.00;;;;4983147;28;20407;-72
2021/12/22 11:06:30;;;;;;;17.83;9.97;;;;;-0.30;101880.00;;;;4990626;28;20238;-72
2021/12/22 11:09:17;;;;;;;25.10;9.30;;;;;-0.30;101889.00;;;;4988881;28;20226;-73
2021/12/22 11:12:06;;;;;;;22.53;10.70;;;;;-0.30;101879.00;;;;4986305;28;20586;-71
2021/12/22 11:14:54;;;;;;;22.43;11.27;;;;;-0.20;101864.00;;;;4977624;28;20242;-72
2021/12/22 11:17:41;;;;;;;18.60;9.43;;;;;0.00;101871.00;;;;4989664;28;20222;-73
2021/12/22 11:20:28;;;;;;;20.57;10.70;;;;;-0.10;101862.00;;;;4979178;28;20235;-72
2021/12/22 11:23:15;;;;;;;20.47;10.67;;;;;-0.10;101864.00;;;;4985505;28;20231;-70
2021/12/22 11:26:01;;;;;;;20.37;10.27;;;;;0.00;101857.00;;;;4986094;28;20242;-74
2021/12/22 11:28:48;;;;;;;18.17;8.90;;;;;-0.10;101857.00;;;;5001932;28;20230;-73
2021/12/22 11:31:34;;;;;;;22.03;11.23;;;;;0.00;101852.00;;;;5012838;28;20233;-72
2021/12/22 11:34:22;;;;;;;20.00;9.87;;;;;0.00;101847.00;;;;5015290;28;20333;-73
2021/12/22 11:37:11;;;;;;;17.37;10.10;;;;;0.10;101840.00;;;;4996060;28;20360;-73
2021/12/22 11:39:58;;;;;;;20.10;10.27;;;;;0.10;101843.00;;;;5013262;28;20229;-73
2021/12/22 11:42:45;;;;;;;18.53;9.97;;;;;0.10;101848.00;;;;5012412;28;20732;-73
2021/12/22 11:45:34;;;;;;;18.17;10.17;;;;;0.20;101843.00;;;;5021230;28;20583;-73
2021/12/22 11:48:20;;;;;;;20.03;10.27;;;;;0.30;101834.00;;;;5005662;28;20226;-73
2021/12/22 11:51:23;;;;;;;34.90;17.47;;;;;0.40;101838.00;;;;4999323;28;20217;-73
2021/12/22 11:54:11;;;;;;;18.03;9.87;;;;;0.30;101819.00;;;;5000593;28;20272;-73
2021/12/22 11:56:59;;;;;;;20.03;10.43;;;;;0.30;101816.00;;;;4991738;28;20235;-72
2021/12/22 11:59:46;;;;;;;17.60;10.23;;;;;0.30;101831.00;;;;4986193;28;20227;-74
2021/12/22 12:02:33;;;;;;;17.73;10.30;;;;;0.50;101816.00;;;;5009597;28;20237;-73
2021/12/22 12:05:22;;;;;;;14.27;8.90;;;;;0.50;101818.00;;;;4986956;28;20230;-74
2021/12/22 12:08:17;;;;;;;18.77;10.13;;;;;0.60;101816.00;;;;5007331;28;20768;-73
2021/12/22 12:11:06;;;;;;;18.20;10.03;;;;;0.50;101818.00;;;;4986012;28;20238;-73
2021/12/22 12:13:55;;;;;;;17.30;9.67;;;;;0.60;101819.00;;;;4992537;28;20589;-74
2021/12/22 12:22:51;;;;;;;17.03;9.43;;;;;0.70;101810.00;;;;5000228;28;20340;-73
2021/12/22 12:25:37;;;;;;;18.73;10.60;;;;;0.60;101817.00;;;;5011876;28;20369;-75
2021/12/22 12:28:26;;;;;;;18.17;9.93;;;;;0.60;101807.00;;;;4991400;28;20231;-75
2021/12/22 12:31:12;;;;;;;20.53;10.23;;;;;0.60;101812.00;;;;5016981;28;20233;-74
2021/12/22 12:34:20;;;;;;;19.43;10.03;;;;;0.60;101804.00;;;;4987047;28;20238;-74
2021/12/22 12:37:08;;;;;;;18.90;10.13;;;;;0.50;101811.00;;;;4992902;28;20672;-74
2021/12/22 12:39:55;;;;;;;22.87;11.00;;;;;0.60;101802.00;;;;4979336;28;20718;-74
2021/12/22 12:42:57;;;;;;;21.87;10.77;;;;;0.70;101802.00;;;;5014687;28;20851;-75
2021/12/22 12:45:47;;;;;;;20.67;10.60;;;;;0.70;101785.00;;;;5003967;28;20224;-74
2021/12/22 12:48:34;;;;;;;17.67;9.93;;;;;0.80;101784.00;;;;5018840;28;20594;-74
2021/12/22 12:51:24;;;;;;;19.00;10.43;;;;;0.70;101788.00;;;;5013076;28;20234;-73
2021/12/22 12:54:27;;;;;;;19.07;10.87;;;;;0.70;101786.00;;;;5007459;28;20241;-73
2021/12/22 12:57:26;;;;;;;20.27;11.40;;;;;0.80;101779.00;;;;5002424;28;20242;-72
2021/12/22 13:00:24;;;;;;;27.50;15.03;;;;;0.60;101772.00;;;;5003810;28;20313;-73
2021/12/22 13:03:11;;;;;;;21.00;10.70;;;;;0.60;101763.00;;;;4982857;28;20247;-73
2021/12/22 13:05:57;;;;;;;21.17;10.97;;;;;0.50;101759.00;;;;4980713;28;20227;-73
2021/12/22 13:08:44;;;;;;;23.60;11.83;;;;;0.60;101756.00;;;;4985986;28;20230;-73
2021/12/22 13:11:33;;;;;;;23.70;12.53;;;;;0.60;101751.00;;;;5005140;28;20246;-72
2021/12/22 13:17:43;;;;;;;19.80;10.27;;;;;0.60;101750.00;;;;5016281;28;20229;-72
2021/12/22 13:20:33;;;;;;;22.53;11.83;;;;;0.60;101751.00;;;;5032350;28;20252;-74
2021/12/22 13:23:22;;;;;;;18.53;11.27;;;;;0.70;101743.00;;;;5028080;28;20229;-74
2021/12/22 13:26:08;;;;;;;26.47;13.10;;;;;0.70;101743.00;;;;5025104;28;20245;-74
2021/12/22 13:28:55;;;;;;;29.13;13.77;;;;;0.70;101741.00;;;;5029707;28;20296;-74
2021/12/22 13:31:41;;;;;;;18.57;11.20;;;;;0.70;101740.00;;;;5031763;28;20284;-73
2021/12/22 13:34:28;;;;;;;18.30;11.20;;;;;0.80;101731.00;;;;5031948;28;20252;-73
2021/12/22 13:37:15;;;;;;;23.73;12.63;;;;;0.80;101739.00;;;;5020593;28;20226;-76
2021/12/22 13:40:02;;;;;;;19.73;10.97;;;;;0.80;101735.00;;;;5017059;28;20297;-76
2021/12/22 13:42:48;;;;;;;23.70;13.50;;;;;0.80;101740.00;;;;5032982;28;20230;-75
2021/12/22 13:45:35;;;;;;;25.13;12.13;;;;;0.70;101727.00;;;;5022048;28;20234;-72
2021/12/22 13:48:26;;;;;;;20.73;12.57;;;;;0.70;101727.00;;;;4991462;28;20269;-74
2021/12/22 13:51:14;;;;;;;21.13;11.67;;;;;0.80;101721.00;;;;5004200;28;20263;-70
2021/12/22 13:54:06;;;;;;;22.20;11.13;;;;;0.80;101723.00;;;;5013794;28;20230;-74
2021/12/22 13:56:57;;;;;;;24.17;12.57;;;;;0.70;101728.00;;;;5011335;28;20643;-71